Latest Weather Observations for Roebourne Airport

IDW60801

Issued at 7:33 pm WST Monday 25 July 2016 (issued every 30 minutes, with the page automatically refreshed every 10 minutes)

About weather observations | Map of weather stations | Latest weather observations for WA | Other Formats
Station Details ID: 004090 Name: ROEBOURNE AERO Lat: -20.76 Lon: 117.16 Height: 10.7 m
Data from the previous 72 hours. | See also: Recent months at Roebourne Airport
Date/Time
WST
Temp
°C
App
Temp
°C
Dew
Point
°C
Rel
Hum
%
Delta-T
°C
Wind Press
QNH
hPa
Press
MSL
hPa
Rain since
9am
mm
Dir  Spd
km/h
Gust
km/h
Spd
kts
Gust
kts
25/07:30pm 22.4 23.4 13.2 56 5.3 CALM 0 0 0 0 1017.1 1017.0 0.2
25/07:00pm 23.3 24.0 12.3 50 6.2 CALM 0 0 0 0 1016.8 1016.7 0.2
25/06:30pm 23.7 24.3 12.0 48 6.6 CALM 0 0 0 0 1016.5 1016.4 0.2
25/06:00pm 23.8 23.1 12.1 48 6.6 NNE 7 9 4 5 1016.1 1016.0 0.2
25/05:30pm 25.0 23.5 11.9 44 7.5 N 11 13 6 7 1016.0 1015.9 0.2
25/05:00pm 26.1 24.3 12.2 42 8.0 NNE 13 17 7 9 1015.9 1015.8 0.2
25/04:30pm 27.4 25.4 11.4 37 9.1 NNE 13 17 7 9 1015.7 1015.6 0.2
25/04:00pm 28.4 27.2 11.5 35 9.7 ENE 9 17 5 9 1015.7 1015.6 0.2
25/03:30pm 28.8 26.2 9.5 30 10.8 SE 13 20 7 11 1015.6 1015.5 0.2
25/03:00pm 28.9 25.7 10.1 31 10.6 SE 17 26 9 14 1015.7 1015.6 0.2
25/02:30pm 28.6 25.7 9.8 31 10.5 SE 15 22 8 12 1015.9 1015.8 0.2
25/02:00pm 28.5 25.8 10.2 32 10.3 ESE 15 28 8 15 1016.2 1016.1 0.2
25/01:30pm 28.2 25.0 9.9 32 10.2 SE 17 28 9 15 1016.6 1016.5 0.2
25/01:00pm 27.4 23.9 8.8 31 10.2 SE 17 24 9 13 1017.1 1017.0 0.2
25/12:30pm 27.3 23.5 9.2 32 10.0 SE 19 28 10 15 1017.8 1017.7 0.2
25/12:00pm 26.6 22.5 8.6 32 9.8 ESE 20 28 11 15 1018.4 1018.3 0.2
25/11:30am 25.6 21.3 7.7 32 9.5 ESE 20 28 11 15 1018.8 1018.7 0.2
25/11:00am 25.3 20.6 7.9 33 9.2 ESE 22 30 12 16 1019.2 1019.1 0.2
25/10:30am 24.5 19.5 8.0 35 8.8 ESE 24 30 13 16 1019.7 1019.6 0.2
25/10:00am 23.4 18.0 7.9 37 8.1 ESE 26 33 14 18 1019.7 1019.6 0.0
25/09:30am 22.6 17.1 7.6 38 7.8 ESE 26 35 14 19 1019.7 1019.6 0.0
25/09:00am 21.7 16.4 8.6 43 6.9 ESE 26 33 14 18 1019.6 1019.5 0.0
25/08:30am 20.6 16.3 9.5 49 5.9 SE 22 32 12 17 1019.5 1019.4 0.0
25/08:00am 18.9 16.4 11.0 60 4.3 SE 15 20 8 11 1019.2 1019.1 0.0
25/07:30am 17.6 17.1 12.5 72 2.8 ESE 7 11 4 6 1019.0 1018.9 0.0
25/07:00am 17.3 16.6 12.0 71 2.9 E 7 9 4 5 1018.6 1018.5 0.0
25/06:30am 17.7 16.1 11.7 68 3.3 ESE 11 13 6 7 1018.3 1018.2 0.0
25/06:00am 17.9 16.0 11.7 67 3.4 ESE 13 17 7 9 1018.0 1017.9 0.0
25/05:30am 17.7 16.7 12.4 71 2.9 ESE 9 15 5 8 1017.6 1017.5 0.0
25/05:00am 17.4 16.3 13.1 76 2.4 ESE 11 17 6 9 1017.1 1017.0 0.0
25/04:30am 18.1 17.3 12.8 71 3.0 E 9 13 5 7 1017.3 1017.2 0.0
25/04:00am 18.2 16.5 12.6 70 3.1 ESE 13 17 7 9 1016.9 1016.8 0.0
25/03:30am 18.0 16.1 12.9 72 2.9 SE 15 19 8 10 1017.0 1016.9 0.0
25/03:00am 17.6 15.7 13.1 75 2.5 SE 15 19 8 10 1017.2 1017.1 0.0
25/02:30am 17.6 14.8 13.3 76 2.4 ESE 20 30 11 16 1017.0 1016.9 0.0
25/02:00am 18.9 17.0 11.9 64 3.9 E 13 15 7 8 1017.6 1017.5 0.0
25/01:30am 18.7 15.7 12.0 65 3.7 ESE 19 26 10 14 1017.9 1017.8 0.0
25/01:00am 19.7 14.8 11.2 58 4.6 SE 28 37 15 20 1017.8 1017.7 0.0
25/12:30am 19.7 16.6 11.5 59 4.5 ESE 19 30 10 16 1018.5 1018.4 0.0
25/12:00am 19.9 16.0 12.2 61 4.3 ESE 24 32 13 17 1018.3 1018.2 0.0
 
Date/Time
WST
Temp
°C
App
Temp
°C
Dew
Point
°C
Rel
Hum
%
Delta-T
°C
Wind Press
QNH
hPa
Press
MSL
hPa
Rain since
9am
mm
Dir  Spd
km/h
Gust
km/h
Spd
kts
Gust
kts
24/11:30pm 20.0 16.5 12.3 61 4.3 SE 22 33 12 18 1018.5 1018.4 0.0
24/11:00pm 20.2 17.1 12.2 60 4.5 SE 20 32 11 17 1018.8 1018.7 0.0
24/10:30pm 20.2 16.3 12.2 60 4.5 ESE 24 33 13 18 1018.7 1018.6 0.0
24/10:00pm 20.6 16.4 11.2 55 5.2 SE 24 33 13 18 1018.8 1018.7 0.0
24/09:30pm 21.1 17.2 10.9 52 5.6 SE 22 30 12 16 1018.7 1018.6 0.0
24/09:00pm 21.3 17.0 10.8 51 5.7 ESE 24 33 13 18 1018.4 1018.3 0.0
24/08:30pm 21.6 17.0 11.0 51 5.8 ESE 26 33 14 18 1018.3 1018.2 0.0
24/08:00pm 21.8 17.2 10.9 50 6.0 SE 26 35 14 19 1018.3 1018.2 0.0
24/07:30pm 22.3 17.3 11.1 49 6.2 SE 28 37 15 20 1018.2 1018.1 0.0
24/07:00pm 22.0 18.7 11.7 52 5.8 SE 20 26 11 14 1018.2 1018.1 0.0
24/06:30pm 21.9 19.5 12.5 55 5.3 SE 17 26 9 14 1018.1 1018.0 0.0
24/06:00pm 23.3 22.3 11.0 46 6.8 NNW 7 11 4 6 1018.0 1017.9 0.0
24/05:30pm 23.7 20.1 10.7 44 7.2 ESE 20 26 11 14 1017.0 1016.9 0.0
24/05:00pm 24.0 19.6 10.3 42 7.5 ESE 24 32 13 17 1016.7 1016.6 0.0
24/04:30pm 24.0 20.8 9.9 41 7.7 ESE 17 20 9 11 1016.9 1016.8 0.0
24/04:00pm 24.2 20.5 10.1 41 7.7 ESE 20 24 11 13 1016.5 1016.4 0.0
24/03:30pm 23.9 19.0 9.9 41 7.7 ESE 26 35 14 19 1015.9 1015.8 0.0
24/03:00pm 23.7 18.9 10.4 43 7.3 ESE 26 33 14 18 1015.9 1015.8 0.0
24/02:30pm 23.3 18.9 10.4 44 7.1 ESE 24 32 13 17 1016.4 1016.3 0.0
24/02:00pm 23.1 18.6 10.2 44 7.1 SE 24 30 13 16 1016.5 1016.4 0.0
24/01:30pm 23.1 18.9 9.8 43 7.2 ESE 22 32 12 17 1016.6 1016.5 0.0
24/01:00pm 23.0 19.0 10.4 45 6.9 ESE 22 32 12 17 1016.8 1016.7 0.0
24/12:30pm 23.7 18.7 11.1 45 7.0 E 28 35 15 19 1017.1 1017.0 0.0
24/12:00pm 22.8 18.7 11.5 49 6.3 ESE 24 33 13 18 1018.0 1017.9 0.0
24/11:30am 21.6 18.0 11.9 54 5.4 E 22 28 12 15 1018.4 1018.3 0.0
24/11:00am 20.4 17.8 11.9 58 4.7 E 17 26 9 14 1019.3 1019.2 0.0
24/10:30am 20.3 17.5 12.5 61 4.4 E 19 30 10 16 1019.2 1019.1 0.0
24/10:00am 20.0 14.5 12.0 60 4.4 ESE 32 43 17 23 1018.5 1018.4 0.0
24/09:30am 21.1 14.8 10.9 52 5.6 ESE 35 50 19 27 1018.4 1018.3 0.0
24/09:00am 21.1 15.8 11.2 53 5.5 ESE 30 39 16 21 1018.4 1018.3 0.0
24/08:30am 21.0 17.2 11.1 53 5.5 E 22 32 12 17 1018.9 1018.8 0.0
24/08:00am 21.0 17.4 11.9 56 5.1 E 22 28 12 15 1018.2 1018.1 0.0
24/07:30am 20.8 18.0 12.5 59 4.7 ESE 19 24 10 13 1017.8 1017.7 0.0
24/07:00am 20.6 18.2 12.6 60 4.5 ESE 17 22 9 12 1017.4 1017.3 0.0
24/06:30am 20.7 18.1 12.1 58 4.8 ESE 17 20 9 11 1017.1 1017.0 0.0
24/06:00am 21.0 18.0 11.9 56 5.1 ESE 19 24 10 13 1016.7 1016.6 0.0
24/05:30am 21.4 18.0 11.4 53 5.5 ESE 20 26 11 14 1016.3 1016.2 0.0
24/05:00am 21.8 18.7 11.5 52 5.7 ESE 19 26 10 14 1016.2 1016.1 0.0
24/04:30am 21.4 19.4 11.4 53 5.5 ESE 13 15 7 8 1016.3 1016.2 0.0
24/04:00am 21.6 20.3 11.3 52 5.7 ESE 9 15 5 8 1016.4 1016.3 0.0
24/03:30am 21.9 20.1 11.0 50 6.0 ESE 11 15 6 8 1016.1 1016.0 0.0
24/03:00am 21.8 19.8 11.5 52 5.7 ESE 13 17 7 9 1015.7 1015.6 0.0
24/02:30am 21.8 19.7 12.4 55 5.3 E 15 20 8 11 1015.6 1015.5 0.0
24/02:00am 22.0 23.1 13.4 58 5.0 CALM 0 0 0 0 1016.3 1016.2 0.0
24/01:30am 22.1 23.4 14.0 60 4.7 CALM 0 0 0 0 1016.2 1016.1 0.0
24/01:00am 21.9 21.8 13.8 60 4.7 E 7 9 4 5 1015.9 1015.8 0.0
24/12:30am 22.1 21.8 13.2 57 5.1 ESE 7 9 4 5 1015.8 1015.7 0.0
24/12:00am 22.3 21.6 13.1 56 5.3 ESE 9 11 5 6 1015.9 1015.8 0.0
 
Date/Time
WST
Temp
°C
App
Temp
°C
Dew
Point
°C
Rel
Hum
%
Delta-T
°C
Wind Press
QNH
hPa
Press
MSL
hPa
Rain since
9am
mm
Dir  Spd
km/h
Gust
km/h
Spd
kts
Gust
kts
23/11:30pm 22.7 21.6 13.2 55 5.5 ESE 11 13 6 7 1016.1 1016.0 0.0
23/11:00pm 22.8 21.9 13.6 56 5.3 ESE 11 11 6 6 1016.0 1015.9 0.0
23/10:30pm 22.9 24.3 14.5 59 5.0 CALM 0 6 0 3 1016.1 1016.0 0.0
23/10:00pm 23.0 24.1 14.6 59 5.0 SSE 2 6 1 3 1016.0 1015.9 0.0
23/09:30pm 22.9 23.0 14.5 59 5.0 SSE 7 7 4 4 1015.7 1015.6 0.0
23/09:00pm 23.6 23.7 14.0 55 5.6 SSW 6 7 3 4 1015.9 1015.8 0.0
23/08:30pm 24.0 23.5 13.8 53 6.0 WSW 9 13 5 7 1015.9 1015.8 0.0
23/08:00pm 24.2 24.0 14.6 55 5.7 WNW 9 11 5 6 1015.8 1015.7 0.0
23/07:30pm 25.0 24.8 13.5 48 6.7 SE 7 9 4 5 1015.3 1015.2 0.0
23/07:00pm 25.1 25.1 13.6 49 6.7 SE 6 7 3 4 1015.0 1014.9 0.0
23/06:30pm 25.7 25.1 12.2 43 7.8 SE 7 9 4 5 1014.7 1014.6 0.0
23/06:00pm 26.1 25.1 12.2 42 8.0 ESE 9 11 5 6 1014.5 1014.4 0.0
23/05:30pm 27.0 25.5 10.7 36 9.2 SE 9 11 5 6 1014.3 1014.2 0.0
23/05:00pm 27.7 26.0 10.0 33 9.9 SE 9 11 5 6 1014.2 1014.1 0.0
23/04:30pm 27.7 26.9 10.9 35 9.5 ENE 6 7 3 4 1014.1 1014.0 0.0
23/04:00pm 27.7 27.7 11.3 36 9.4 ENE 2 11 1 6 1014.2 1014.1 0.0
23/03:30pm 28.0 27.0 11.1 35 9.6 NE 7 13 4 7 1014.3 1014.2 0.0
23/03:00pm 28.1 26.4 11.2 35 9.7 NE 11 13 6 7 1014.5 1014.4 0.0
23/02:30pm 28.1 26.5 11.6 36 9.5 NE 11 17 6 9 1014.8 1014.7 0.0
23/02:00pm 27.5 25.9 12.7 40 8.6 NNE 13 19 7 10 1015.2 1015.1 0.0
23/01:30pm 27.7 25.8 10.4 34 9.7 NNE 11 17 6 9 1015.3 1015.2 0.0
23/01:00pm 28.9 26.3 10.6 32 10.4 ESE 15 24 8 13 1015.6 1015.5 0.0
23/12:30pm 28.5 25.1 9.2 30 10.7 ESE 17 26 9 14 1016.0 1015.9 0.0
23/12:00pm 28.0 24.8 9.8 32 10.1 ESE 17 24 9 13 1016.6 1016.5 0.0
23/11:30am 27.3 25.0 11.7 37 9.0 ENE 15 20 8 11 1017.1 1017.0 0.0
23/11:00am 27.1 22.5 9.5 33 9.7 ENE 24 32 13 17 1017.1 1017.0 0.0
23/10:30am 26.9 23.0 9.3 33 9.7 E 20 26 11 14 1017.8 1017.7 0.0
23/10:00am 25.1 21.4 9.4 37 8.6 E 19 24 10 13 1018.0 1017.9 0.0
23/09:30am 23.5 19.7 9.9 42 7.4 E 20 28 11 15 1017.9 1017.8 0.0
23/09:00am 22.7 19.7 10.8 47 6.6 E 17 20 9 11 1017.9 1017.8 0.0
23/08:30am 21.3 20.9 12.4 57 5.0 E 6 7 3 4 1018.0 1017.9 0.0
23/08:00am 20.8 21.4 12.0 57 4.9 CALM 0 6 0 3 1017.8 1017.7 0.0
23/07:30am 20.0 20.8 12.7 63 4.1 CALM 0 0 0 0 1017.3 1017.2 0.0
23/07:00am 19.5 20.0 11.5 60 4.4 CALM 0 4 0 2 1017.1 1017.0 0.0
23/06:30am 19.5 18.8 12.0 62 4.2 E 7 9 4 5 1016.4 1016.3 0.0
23/06:00am 19.8 19.1 11.3 58 4.7 SSE 6 7 3 4 1016.4 1016.3 0.0
23/05:30am 19.5 18.8 11.3 59 4.5 SE 6 7 3 4 1016.0 1015.9 0.0
23/05:00am 19.9 18.1 10.9 56 4.9 SE 11 13 6 7 1015.7 1015.6 0.0
23/04:30am 19.8 18.4 10.8 56 4.9 SE 9 13 5 7 1015.9 1015.8 0.0
23/04:00am 19.9 18.9 11.1 57 4.8 ESE 7 9 4 5 1015.7 1015.6 0.0
23/03:30am 20.2 18.4 10.9 55 5.1 SE 11 11 6 6 1016.0 1015.9 0.0
23/03:00am 20.8 18.8 10.0 50 5.8 SE 11 13 6 7 1016.3 1016.2 0.0
23/02:30am 21.2 18.8 10.1 49 6.0 SSE 13 17 7 9 1016.5 1016.4 0.0
23/02:00am 20.0 18.8 11.5 58 4.7 S 9 13 5 7 1016.7 1016.6 0.0
23/01:30am 19.7 19.1 11.7 60 4.4 SSE 6 7 3 4 1016.8 1016.7 0.0
23/01:00am 19.8 18.7 11.8 60 4.4 E 9 11 5 6 1016.7 1016.6 0.0
23/12:30am 19.7 18.5 11.5 59 4.5 ESE 9 11 5 6 1016.7 1016.6 0.0
23/12:00am 20.2 18.3 10.6 54 5.2 SE 11 13 6 7 1016.6 1016.5 0.0
 
Date/Time
WST
Temp
°C
App
Temp
°C
Dew
Point
°C
Rel
Hum
%
Delta-T
°C
Wind Press
QNH
hPa
Press
MSL
hPa
Rain since
9am
mm
Dir  Spd
km/h
Gust
km/h
Spd
kts
Gust
kts
22/11:30pm 21.0 18.8 10.8 52 5.6 ESE 13 15 7 8 1016.6 1016.5 0.0
22/11:00pm 21.2 19.9 11.2 53 5.5 SE 9 9 5 5 1016.6 1016.5 0.0
22/10:30pm 21.4 20.4 10.9 51 5.8 SSE 7 7 4 4 1016.6 1016.5 0.0
22/10:00pm 21.2 19.7 10.7 51 5.7 SSE 9 11 5 6 1016.4 1016.3 0.0
22/09:30pm 21.2 19.1 11.2 53 5.5 SSE 13 15 7 8 1016.4 1016.3 0.0
22/09:00pm 21.0 19.9 11.9 56 5.1 S 9 11 5 6 1016.5 1016.4 0.0
22/08:30pm 22.1 21.1 10.9 49 6.2 S 7 9 4 5 1016.3 1016.2 0.0
22/08:00pm 22.0 21.6 12.3 54 5.5 SSE 6 7 3 4 1016.0 1015.9 0.0

Other Formats:

Comma delimited format used in spreadsheet applications
http://www.bom.gov.au/fwo/IDW60801/IDW60801.94308.axf

JavaScript Object Notation format (JSON) in row-major order
http://www.bom.gov.au/fwo/IDW60801/IDW60801.94308.json